sensor_id;sensor_type;location;lat;lon;timestamp;P1;durP1;ratioP1;P2;durP2;ratioP2
55216;SDS011;41086;46.736;15.666;2023-02-15T00:01:47;34.90;;;16.52;;
55216;SDS011;41086;46.736;15.666;2023-02-15T00:04:15;36.63;;;16.42;;
55216;SDS011;41086;46.736;15.666;2023-02-15T00:06:44;39.20;;;19.83;;
55216;SDS011;41086;46.736;15.666;2023-02-15T00:09:11;39.50;;;18.85;;
55216;SDS011;41086;46.736;15.666;2023-02-15T00:11:38;45.95;;;20.45;;
55216;SDS011;41086;46.736;15.666;2023-02-15T00:14:20;47.85;;;19.98;;
55216;SDS011;41086;46.736;15.666;2023-02-15T00:16:49;45.75;;;20.42;;
55216;SDS011;41086;46.736;15.666;2023-02-15T00:19:18;40.35;;;18.58;;
55216;SDS011;41086;46.736;15.666;2023-02-15T00:21:47;45.92;;;20.05;;
55216;SDS011;41086;46.736;15.666;2023-02-15T00:24:15;43.35;;;19.77;;
55216;SDS011;41086;46.736;15.666;2023-02-15T00:26:43;48.72;;;21.55;;
55216;SDS011;41086;46.736;15.666;2023-02-15T00:29:11;52.28;;;22.23;;
55216;SDS011;41086;46.736;15.666;2023-02-15T00:31:40;45.75;;;22.63;;
55216;SDS011;41086;46.736;15.666;2023-02-15T00:34:10;50.75;;;21.88;;
55216;SDS011;41086;46.736;15.666;2023-02-15T00:36:40;54.92;;;25.05;;
55216;SDS011;41086;46.736;15.666;2023-02-15T00:39:07;48.13;;;21.42;;
55216;SDS011;41086;46.736;15.666;2023-02-15T00:41:34;42.72;;;19.35;;
55216;SDS011;41086;46.736;15.666;2023-02-15T00:44:02;39.80;;;16.90;;
55216;SDS011;41086;46.736;15.666;2023-02-15T00:46:29;42.85;;;16.13;;
55216;SDS011;41086;46.736;15.666;2023-02-15T00:48:56;36.97;;;16.30;;
55216;SDS011;41086;46.736;15.666;2023-02-15T00:51:23;30.52;;;14.65;;
55216;SDS011;41086;46.736;15.666;2023-02-15T00:53:50;33.17;;;13.90;;
55216;SDS011;41086;46.736;15.666;2023-02-15T00:56:17;28.45;;;14.55;;
55216;SDS011;41086;46.736;15.666;2023-02-15T00:58:44;28.08;;;14.82;;
55216;SDS011;41086;46.736;15.666;2023-02-15T01:01:15;35.97;;;16.23;;
55216;SDS011;41086;46.736;15.666;2023-02-15T01:03:44;29.30;;;15.07;;
55216;SDS011;41086;46.736;15.666;2023-02-15T01:06:13;29.25;;;15.35;;
55216;SDS011;41086;46.736;15.666;2023-02-15T01:08:42;28.38;;;14.27;;
55216;SDS011;41086;46.736;15.666;2023-02-15T01:11:11;30.13;;;15.00;;
55216;SDS011;41086;46.736;15.666;2023-02-15T01:13:41;26.33;;;13.60;;
55216;SDS011;41086;46.736;15.666;2023-02-15T01:16:08;30.15;;;12.73;;
55216;SDS011;41086;46.736;15.666;2023-02-15T01:18:35;27.85;;;13.00;;
55216;SDS011;41086;46.736;15.666;2023-02-15T01:21:09;23.00;;;11.02;;
55216;SDS011;41086;46.736;15.666;2023-02-15T01:23:42;32.50;;;13.55;;
55216;SDS011;41086;46.736;15.666;2023-02-15T01:26:11;29.60;;;13.27;;
55216;SDS011;41086;46.736;15.666;2023-02-15T01:28:39;22.67;;;12.00;;
55216;SDS011;41086;46.736;15.666;2023-02-15T01:31:07;29.48;;;13.73;;
55216;SDS011;41086;46.736;15.666;2023-02-15T01:33:36;20.80;;;12.95;;
55216;SDS011;41086;46.736;15.666;2023-02-15T01:36:03;42.67;;;17.70;;
55216;SDS011;41086;46.736;15.666;2023-02-15T01:38:31;46.78;;;15.15;;
55216;SDS011;41086;46.736;15.666;2023-02-15T01:40:58;32.70;;;15.48;;
55216;SDS011;41086;46.736;15.666;2023-02-15T01:43:46;35.88;;;14.40;;
55216;SDS011;41086;46.736;15.666;2023-02-15T01:46:15;51.33;;;19.55;;
55216;SDS011;41086;46.736;15.666;2023-02-15T01:48:48;41.53;;;16.77;;
55216;SDS011;41086;46.736;15.666;2023-02-15T01:51:19;43.05;;;19.30;;
55216;SDS011;41086;46.736;15.666;2023-02-15T01:53:51;31.35;;;14.20;;
55216;SDS011;41086;46.736;15.666;2023-02-15T01:56:25;40.17;;;19.05;;
55216;SDS011;41086;46.736;15.666;2023-02-15T01:58:55;43.92;;;19.05;;
55216;SDS011;41086;46.736;15.666;2023-02-15T02:01:24;45.10;;;18.83;;
55216;SDS011;41086;46.736;15.666;2023-02-15T02:06:31;53.38;;;20.42;;
55216;SDS011;41086;46.736;15.666;2023-02-15T02:09:00;37.72;;;18.05;;
55216;SDS011;41086;46.736;15.666;2023-02-15T02:11:27;49.83;;;23.67;;
55216;SDS011;41086;46.736;15.666;2023-02-15T02:13:54;42.88;;;19.67;;
